Time,TemperatureF,DewpointF,PressureIn,WindDirection,WindDirectionDegrees,WindSpeedMPH,WindSpeedGustMPH,Humidity,HourlyPrecipIn,Conditions,Clouds,dailyrainin,SoftwareType,DateUTC
2013-01-18 00:01:00,8.3,0.5,30.01,NW,322,3.0,3.0,70,0.00,,,0.00,Wunderground v.1.15,2013-01-18 05:01:00,
2013-01-18 00:03:00,8.3,0.8,30.02,WSW,243,0.0,3.0,71,0.00,,,0.00,Wunderground v.1.15,2013-01-18 05:03:00,
2013-01-18 00:04:00,8.3,0.8,30.02,West,273,0.0,3.0,71,0.00,,,0.00,Wunderground v.1.15,2013-01-18 05:04:00,
2013-01-18 00:07:00,8.2,0.7,30.02,WNW,291,2.0,4.0,71,0.00,,,0.00,Wunderground v.1.15,2013-01-18 05:07:00,
2013-01-18 00:12:00,8.2,0.7,30.03,NNW,328,1.0,2.0,71,0.00,,,0.00,Wunderground v.1.15,2013-01-18 05:12:00,
2013-01-18 00:17:00,8.2,0.4,30.04,NW,307,3.0,3.0,70,0.00,,,0.00,Wunderground v.1.15,2013-01-18 05:17:00,
2013-01-18 00:22:00,8.1,0.3,30.04,West,269,1.0,2.0,70,0.00,,,0.00,Wunderground v.1.15,2013-01-18 05:22:00,
2013-01-18 00:27:00,8.0,-0.1,30.05,SSE,153,0.0,3.0,69,0.00,,,0.00,Wunderground v.1.15,2013-01-18 05:27:00,
2013-01-18 00:33:00,7.9,0.4,30.05,West,267,0.0,1.0,71,0.00,,,0.00,Wunderground v.1.15,2013-01-18 05:33:00,
2013-01-18 00:39:00,7.8,0.9,30.05,West,259,0.0,0.0,73,0.00,,,0.00,Wunderground v.1.15,2013-01-18 05:39:00,
2013-01-18 00:44:00,7.6,0.7,30.03,East,90,0.0,0.0,73,0.00,,,0.00,Wunderground v.1.15,2013-01-18 05:44:00,
2013-01-18 00:49:00,7.3,0.7,30.04,South,186,0.0,0.0,74,0.00,,,0.00,Wunderground v.1.15,2013-01-18 05:49:00,
2013-01-18 00:54:00,7.1,0.6,30.05,SSW,197,0.0,0.0,74,0.00,,,0.00,Wunderground v.1.15,2013-01-18 05:54:00,
2013-01-18 01:00:00,6.9,0.4,30.05,WNW,284,0.0,0.0,74,0.00,,,0.00,Wunderground v.1.15,2013-01-18 06:00:00,
2013-01-18 01:06:00,6.8,0.6,30.05,West,280,1.0,2.0,75,0.00,,,0.00,Wunderground v.1.15,2013-01-18 06:06:00,
2013-01-18 01:11:00,6.7,0.2,30.06,NW,309,2.0,4.0,74,0.00,,,0.00,Wunderground v.1.15,2013-01-18 06:11:00,
2013-01-18 01:16:00,6.6,0.1,30.05,NW,307,2.0,4.0,74,0.00,,,0.00,Wunderground v.1.15,2013-01-18 06:16:00,
2013-01-18 01:22:00,6.4,0.2,30.04,West,264,1.0,4.0,75,0.00,,,0.00,Wunderground v.1.15,2013-01-18 06:22:00,
2013-01-18 01:28:00,6.4,0.2,30.04,West,259,1.0,4.0,75,0.00,,,0.00,Wunderground v.1.15,2013-01-18 06:28:00,
2013-01-18 01:33:00,6.4,0.2,30.05,NW,308,3.0,3.0,75,0.00,,,0.00,Wunderground v.1.15,2013-01-18 06:33:00,
2013-01-18 01:39:00,6.3,0.1,30.05,WNW,297,1.0,1.0,75,0.00,,,0.00,Wunderground v.1.15,2013-01-18 06:39:00,
2013-01-18 01:44:00,6.2,-0.3,30.04,NNE,22,2.0,2.0,74,0.00,,,0.00,Wunderground v.1.15,2013-01-18 06:44:00,
2013-01-18 01:49:00,6.0,-0.5,30.05,NW,318,1.0,1.0,74,0.00,,,0.00,Wunderground v.1.15,2013-01-18 06:49:00,
2013-01-18 01:55:00,5.8,-0.7,30.05,NW,319,0.0,1.0,74,0.00,,,0.00,Wunderground v.1.15,2013-01-18 06:55:00,
2013-01-18 02:00:00,5.6,-0.9,30.05,NW,319,0.0,0.0,74,0.00,,,0.00,Wunderground v.1.15,2013-01-18 07:00:00,
2013-01-18 02:05:00,5.4,-1.1,30.07,NW,319,0.0,1.0,74,0.00,,,0.00,Wunderground v.1.15,2013-01-18 07:05:00,
2013-01-18 02:10:00,5.3,-0.9,30.07,NW,318,0.0,0.0,75,0.00,,,0.00,Wunderground v.1.15,2013-01-18 07:10:00,
2013-01-18 02:15:00,5.2,-1.0,30.08,SW,225,0.0,0.0,75,0.00,,,0.00,Wunderground v.1.15,2013-01-18 07:15:00,
2013-01-18 02:20:00,4.9,-1.3,30.06,South,171,0.0,0.0,75,0.00,,,0.00,Wunderground v.1.15,2013-01-18 07:20:00,
2013-01-18 02:25:00,4.7,-1.2,30.07,South,170,0.0,0.0,76,0.00,,,0.00,Wunderground v.1.15,2013-01-18 07:25:00,
2013-01-18 02:30:00,4.4,-1.5,30.09,South,171,0.0,0.0,76,0.00,,,0.00,Wunderground v.1.15,2013-01-18 07:30:00,
2013-01-18 02:35:00,4.3,-1.3,30.10,SE,145,0.0,1.0,77,0.00,,,0.00,Wunderground v.1.15,2013-01-18 07:35:00,
2013-01-18 02:40:00,4.1,-1.5,30.09,NNW,339,0.0,1.0,77,0.00,,,0.00,Wunderground v.1.15,2013-01-18 07:40:00,
2013-01-18 02:45:00,4.1,-1.5,30.10,WNW,298,0.0,2.0,77,0.00,,,0.00,Wunderground v.1.15,2013-01-18 07:45:00,
2013-01-18 02:50:00,4.0,-1.6,30.09,North,3,1.0,1.0,77,0.00,,,0.00,Wunderground v.1.15,2013-01-18 07:50:00,
2013-01-18 02:55:00,3.9,-1.7,30.09,NW,314,0.0,1.0,77,0.00,,,0.00,Wunderground v.1.15,2013-01-18 07:55:00,
2013-01-18 03:00:00,3.6,-2.0,30.10,NW,315,0.0,0.0,77,0.00,,,0.00,Wunderground v.1.15,2013-01-18 08:00:00,
2013-01-18 03:05:00,3.3,-2.0,30.09,NW,314,0.0,0.0,78,0.00,,,0.00,Wunderground v.1.15,2013-01-18 08:05:00,
2013-01-18 03:10:00,2.9,-2.4,30.09,NW,316,0.0,0.0,78,0.00,,,0.00,Wunderground v.1.15,2013-01-18 08:10:00,
2013-01-18 03:15:00,2.6,-2.4,30.09,NW,316,0.0,0.0,79,0.00,,,0.00,Wunderground v.1.15,2013-01-18 08:15:00,
2013-01-18 03:20:00,2.2,-2.6,30.09,NW,316,0.0,0.0,80,0.00,,,0.00,Wunderground v.1.15,2013-01-18 08:20:00,
2013-01-18 03:25:00,1.9,-2.8,30.09,NW,316,0.0,0.0,80,0.00,,,0.00,Wunderground v.1.15,2013-01-18 08:25:00,
2013-01-18 03:30:00,1.6,-2.9,30.09,NNW,340,0.0,1.0,81,0.00,,,0.00,Wunderground v.1.15,2013-01-18 08:30:00,
2013-01-18 03:35:00,1.3,-3.2,30.09,NNW,340,0.0,1.0,81,0.00,,,0.00,Wunderground v.1.15,2013-01-18 08:35:00,
2013-01-18 03:40:00,1.1,-3.4,30.08,NNW,340,0.0,0.0,81,0.00,,,0.00,Wunderground v.1.15,2013-01-18 08:40:00,
2013-01-18 03:46:00,0.8,-3.7,30.09,NNW,340,0.0,0.0,81,0.00,,,0.00,Wunderground v.1.15,2013-01-18 08:46:00,
2013-01-18 03:51:00,0.5,-4.0,30.10,NNW,340,0.0,0.0,81,0.00,,,0.00,Wunderground v.1.15,2013-01-18 08:51:00,
2013-01-18 03:56:00,0.2,-4.0,30.10,NNW,339,0.0,1.0,82,0.00,,,0.00,Wunderground v.1.15,2013-01-18 08:56:00,
2013-01-18 04:01:00,-0.2,-4.4,30.10,NNW,339,0.0,0.0,82,0.00,,,0.00,Wunderground v.1.15,2013-01-18 09:01:00,
2013-01-18 04:06:00,-0.7,-4.6,30.10,NNW,346,1.0,1.0,83,0.00,,,0.00,Wunderground v.1.15,2013-01-18 09:06:00,
2013-01-18 04:11:00,-0.7,-4.6,30.09,NNW,345,0.0,1.0,83,0.00,,,0.00,Wunderground v.1.15,2013-01-18 09:11:00,
2013-01-18 04:16:00,-0.6,-4.3,30.10,North,359,0.0,2.0,84,0.00,,,0.00,Wunderground v.1.15,2013-01-18 09:16:00,
2013-01-18 04:21:00,-0.7,-4.6,30.10,North,359,0.0,0.0,83,0.00,,,0.00,Wunderground v.1.15,2013-01-18 09:21:00,
2013-01-18 04:26:00,-1.0,-4.7,30.10,North,359,0.0,0.0,84,0.00,,,0.00,Wunderground v.1.15,2013-01-18 09:26:00,
2013-01-18 04:31:00,-1.2,-4.9,30.10,North,359,0.0,0.0,84,0.00,,,0.00,Wunderground v.1.15,2013-01-18 09:31:00,
2013-01-18 04:36:00,-1.4,-5.1,30.11,North,359,0.0,0.0,84,0.00,,,0.00,Wunderground v.1.15,2013-01-18 09:36:00,
2013-01-18 04:41:00,-1.6,-5.3,30.11,North,359,0.0,0.0,84,0.00,,,0.00,Wunderground v.1.15,2013-01-18 09:41:00,
2013-01-18 04:46:00,-1.9,-5.6,30.12,North,359,0.0,0.0,84,0.00,,,0.00,Wunderground v.1.15,2013-01-18 09:46:00,
2013-01-18 04:51:00,-2.2,-5.8,30.12,North,359,0.0,0.0,84,0.00,,,0.00,Wunderground v.1.15,2013-01-18 09:51:00,
2013-01-18 04:56:00,-2.4,-5.8,30.12,North,359,0.0,0.0,85,0.00,,,0.00,Wunderground v.1.15,2013-01-18 09:56:00,
2013-01-18 05:01:00,-2.5,-5.7,30.13,North,360,0.0,0.0,86,0.00,,,0.00,Wunderground v.1.15,2013-01-18 10:01:00,
2013-01-18 05:06:00,-2.3,-5.5,30.13,NNE,33,1.0,1.0,86,0.00,,,0.00,Wunderground v.1.15,2013-01-18 10:06:00,
2013-01-18 05:11:00,-2.2,-5.4,30.14,North,360,2.0,2.0,86,0.00,,,0.00,Wunderground v.1.15,2013-01-18 10:11:00,
2013-01-18 05:16:00,-1.8,-5.0,30.14,NNE,25,0.0,2.0,86,0.00,,,0.00,Wunderground v.1.15,2013-01-18 10:16:00,
2013-01-18 05:21:00,-1.8,-5.0,30.14,NNE,25,0.0,1.0,86,0.00,,,0.00,Wunderground v.1.15,2013-01-18 10:21:00,
2013-01-18 05:26:00,-1.8,-5.2,30.15,North,6,0.0,1.0,85,0.00,,,0.00,Wunderground v.1.15,2013-01-18 10:26:00,
2013-01-18 05:31:00,-1.9,-5.3,30.14,North,5,0.0,0.0,85,0.00,,,0.00,Wunderground v.1.15,2013-01-18 10:31:00,
2013-01-18 05:36:00,-2.1,-5.5,30.14,North,6,0.0,1.0,85,0.00,,,0.00,Wunderground v.1.15,2013-01-18 10:36:00,
2013-01-18 05:41:00,-2.3,-5.7,30.14,North,6,0.0,0.0,85,0.00,,,0.00,Wunderground v.1.15,2013-01-18 10:41:00,
2013-01-18 05:46:00,-2.4,-5.6,30.15,NNW,340,0.0,2.0,86,0.00,,,0.00,Wunderground v.1.15,2013-01-18 10:46:00,
2013-01-18 05:51:00,-2.5,-5.7,30.15,North,10,0.0,1.0,86,0.00,,,0.00,Wunderground v.1.15,2013-01-18 10:51:00,
2013-01-18 05:56:00,-2.6,-5.8,30.15,North,10,0.0,1.0,86,0.00,,,0.00,Wunderground v.1.15,2013-01-18 10:56:00,
2013-01-18 06:01:00,-2.9,-6.0,30.16,North,10,0.0,0.0,86,0.00,,,0.00,Wunderground v.1.15,2013-01-18 11:01:00,
2013-01-18 06:06:00,-3.2,-6.3,30.16,North,10,0.0,0.0,86,0.00,,,0.00,Wunderground v.1.15,2013-01-18 11:06:00,
2013-01-18 06:11:00,-3.8,-7.2,30.17,North,10,0.0,0.0,85,0.00,,,0.00,Wunderground v.1.15,2013-01-18 11:11:00,
2013-01-18 06:16:00,-4.4,-7.8,30.17,North,10,0.0,0.0,85,0.00,,,0.00,Wunderground v.1.15,2013-01-18 11:16:00,
2013-01-18 06:21:00,-4.8,-7.9,30.17,North,10,0.0,0.0,86,0.00,,,0.00,Wunderground v.1.15,2013-01-18 11:21:00,
2013-01-18 06:26:00,-5.2,-8.3,30.17,North,10,0.0,0.0,86,0.00,,,0.00,Wunderground v.1.15,2013-01-18 11:26:00,
2013-01-18 06:31:00,-5.7,-8.8,30.18,North,10,0.0,0.0,86,0.00,,,0.00,Wunderground v.1.15,2013-01-18 11:31:00,
2013-01-18 06:36:00,-6.0,-8.9,30.18,North,10,0.0,0.0,87,0.00,,,0.00,Wunderground v.1.15,2013-01-18 11:36:00,
2013-01-18 06:41:00,-5.7,-8.3,30.19,North,10,0.0,0.0,88,0.00,,,0.00,Wunderground v.1.15,2013-01-18 11:41:00,
2013-01-18 06:46:00,-5.8,-8.4,30.19,North,10,0.0,0.0,88,0.00,,,0.00,Wunderground v.1.15,2013-01-18 11:46:00,
2013-01-18 06:51:00,-6.1,-9.0,30.20,North,10,0.0,0.0,87,0.00,,,0.00,Wunderground v.1.15,2013-01-18 11:51:00,
2013-01-18 06:56:00,-6.3,-9.2,30.20,North,10,0.0,0.0,87,0.00,,,0.00,Wunderground v.1.15,2013-01-18 11:56:00,
2013-01-18 07:01:00,-6.5,-9.4,30.21,North,10,0.0,0.0,87,0.00,,,0.00,Wunderground v.1.15,2013-01-18 12:01:00,
2013-01-18 07:06:00,-6.5,-9.4,30.21,North,10,0.0,0.0,87,0.00,,,0.00,Wunderground v.1.15,2013-01-18 12:06:00,
2013-01-18 07:11:00,-6.8,-9.7,30.21,North,10,0.0,0.0,87,0.00,,,0.00,Wunderground v.1.15,2013-01-18 12:11:00,
2013-01-18 07:16:00,-7.4,-10.5,30.21,North,10,0.0,0.0,86,0.00,,,0.00,Wunderground v.1.15,2013-01-18 12:16:00,
2013-01-18 07:21:00,-7.6,-10.4,30.21,North,10,0.0,0.0,87,0.00,,,0.00,Wunderground v.1.15,2013-01-18 12:21:00,
2013-01-18 07:26:00,-7.8,-10.6,30.22,North,10,0.0,0.0,87,0.00,,,0.00,Wunderground v.1.15,2013-01-18 12:26:00,
2013-01-18 07:31:00,-7.9,-10.7,30.22,North,10,0.0,0.0,87,0.00,,,0.00,Wunderground v.1.15,2013-01-18 12:31:00,
2013-01-18 07:36:00,-7.9,-10.7,30.23,North,10,0.0,0.0,87,0.00,,,0.00,Wunderground v.1.15,2013-01-18 12:36:00,
2013-01-18 07:41:00,-7.6,-10.4,30.23,NNE,23,1.0,2.0,87,0.00,,,0.00,Wunderground v.1.15,2013-01-18 12:41:00,
2013-01-18 07:46:00,-6.1,-8.5,30.23,NE,37,0.0,2.0,89,0.00,,,0.00,Wunderground v.1.15,2013-01-18 12:46:00,
2013-01-18 07:52:00,-4.7,-7.1,30.23,NE,37,0.0,0.0,89,0.00,,,0.00,Wunderground v.1.15,2013-01-18 12:52:00,
2013-01-18 07:57:00,-3.7,-6.6,30.24,NNE,33,0.0,0.0,87,0.00,,,0.00,Wunderground v.1.15,2013-01-18 12:57:00,
2013-01-18 08:02:00,-3.0,-6.1,30.25,North,352,0.0,1.0,86,0.00,,,0.00,Wunderground v.1.15,2013-01-18 13:02:00,
2013-01-18 08:07:00,-2.3,-5.7,30.25,NNE,27,0.0,2.0,85,0.00,,,0.00,Wunderground v.1.15,2013-01-18 13:07:00,
2013-01-18 08:12:00,-1.6,-5.3,30.25,North,353,0.0,1.0,84,0.00,,,0.00,Wunderground v.1.15,2013-01-18 13:12:00,
2013-01-18 08:17:00,-0.8,-5.0,30.25,NE,34,0.0,2.0,82,0.00,,,0.00,Wunderground v.1.15,2013-01-18 13:17:00,
2013-01-18 08:22:00,-0.3,-5.0,30.26,NW,320,0.0,2.0,80,0.00,,,0.00,Wunderground v.1.15,2013-01-18 13:22:00,
2013-01-18 08:27:00,0.2,-5.0,30.26,North,353,0.0,3.0,78,0.00,,,0.00,Wunderground v.1.15,2013-01-18 13:27:00,
2013-01-18 08:32:00,0.6,-5.2,30.26,NNW,335,2.0,2.0,76,0.00,,,0.00,Wunderground v.1.15,2013-01-18 13:32:00,
2013-01-18 08:37:00,1.0,-5.4,30.27,NE,44,0.0,2.0,74,0.00,,,0.00,Wunderground v.1.15,2013-01-18 13:37:00,
2013-01-18 08:42:00,1.5,-5.2,30.27,NNW,329,0.0,2.0,73,0.00,,,0.00,Wunderground v.1.15,2013-01-18 13:42:00,
2013-01-18 08:47:00,1.8,-5.7,30.27,NW,307,0.0,3.0,70,0.00,,,0.00,Wunderground v.1.15,2013-01-18 13:47:00,
2013-01-18 08:52:00,2.2,-5.6,30.27,NW,319,0.0,4.0,69,0.00,,,0.00,Wunderground v.1.15,2013-01-18 13:52:00,
2013-01-18 08:57:00,2.6,-5.6,30.27,North,8,0.0,4.0,68,0.00,,,0.00,Wunderground v.1.15,2013-01-18 13:57:00,
2013-01-18 09:02:00,2.9,-5.3,30.28,NW,304,1.0,2.0,68,0.00,,,0.00,Wunderground v.1.15,2013-01-18 14:02:00,
2013-01-18 09:07:00,3.3,-5.2,30.28,NNW,333,1.0,3.0,67,0.00,,,0.00,Wunderground v.1.15,2013-01-18 14:07:00,
2013-01-18 09:12:00,3.5,-5.6,30.28,NW,312,3.0,4.0,65,0.00,,,0.00,Wunderground v.1.15,2013-01-18 14:12:00,
2013-01-18 09:17:00,3.6,-5.5,30.29,NW,308,2.0,7.0,65,0.00,,,0.00,Wunderground v.1.15,2013-01-18 14:17:00,
2013-01-18 09:22:00,3.8,-5.4,30.29,NNW,345,2.0,5.0,65,0.00,,,0.00,Wunderground v.1.15,2013-01-18 14:22:00,
2013-01-18 09:27:00,3.9,-5.6,30.29,NW,305,4.0,6.0,64,0.00,,,0.00,Wunderground v.1.15,2013-01-18 14:27:00,
2013-01-18 09:32:00,4.3,-5.2,30.29,NNW,338,0.0,4.0,64,0.00,,,0.00,Wunderground v.1.15,2013-01-18 14:32:00,
2013-01-18 09:37:00,5.1,-4.4,30.30,West,280,5.0,6.0,64,0.00,,,0.00,Wunderground v.1.15,2013-01-18 14:37:00,
2013-01-18 09:42:00,5.4,-4.8,30.29,WSW,257,0.0,7.0,62,0.00,,,0.00,Wunderground v.1.15,2013-01-18 14:42:00,
2013-01-18 09:47:00,5.6,-5.3,30.30,SSE,162,1.0,7.0,60,0.00,,,0.00,Wunderground v.1.15,2013-01-18 14:47:00,
2013-01-18 09:52:00,6.0,-4.9,30.30,WNW,303,3.0,6.0,60,0.00,,,0.00,Wunderground v.1.15,2013-01-18 14:52:00,
2013-01-18 09:57:00,6.1,-5.2,30.30,NW,305,6.0,10.0,59,0.00,,,0.00,Wunderground v.1.15,2013-01-18 14:57:00,
2013-01-18 10:02:00,5.6,-6.4,30.30,WNW,295,4.0,10.0,57,0.00,,,0.00,Wunderground v.1.15,2013-01-18 15:02:00,
2013-01-18 10:07:00,5.8,-5.1,30.30,West,262,0.0,10.0,60,0.00,,,0.00,Wunderground v.1.15,2013-01-18 15:07:00,
2013-01-18 10:12:00,5.9,-5.7,30.30,WNW,301,2.0,10.0,58,0.00,,,0.00,Wunderground v.1.15,2013-01-18 15:12:00,
2013-01-18 10:17:00,6.3,-4.6,30.30,NW,309,5.0,11.0,60,0.00,,,0.00,Wunderground v.1.15,2013-01-18 15:17:00,
2013-01-18 10:22:00,6.6,-4.7,30.30,North,354,0.0,5.0,59,0.00,,,0.00,Wunderground v.1.15,2013-01-18 15:22:00,
2013-01-18 10:27:00,7.2,-4.5,30.30,NW,304,5.0,8.0,58,0.00,,,0.00,Wunderground v.1.15,2013-01-18 15:27:00,
2013-01-18 10:32:00,7.4,-4.3,30.31,SSE,155,0.0,7.0,58,0.00,,,0.00,Wunderground v.1.15,2013-01-18 15:32:00,
2013-01-18 10:37:00,7.9,-4.6,30.31,West,271,0.0,7.0,56,0.00,,,0.00,Wunderground v.1.15,2013-01-18 15:37:00,
2013-01-18 10:42:00,7.8,-5.0,30.31,West,269,4.0,10.0,55,0.00,,,0.00,Wunderground v.1.15,2013-01-18 15:42:00,
2013-01-18 10:47:00,7.7,-4.8,30.31,NW,304,7.0,10.0,56,0.00,,,0.00,Wunderground v.1.15,2013-01-18 15:47:00,
2013-01-18 10:53:00,7.9,-4.2,30.30,NNW,342,2.0,7.0,57,0.00,,,0.00,Wunderground v.1.15,2013-01-18 15:53:00,
2013-01-18 10:58:00,8.2,-4.3,30.30,WSW,241,2.0,7.0,56,0.00,,,0.00,Wunderground v.1.15,2013-01-18 15:58:00,
2013-01-18 11:03:00,8.5,-4.8,30.30,WNW,294,1.0,10.0,54,0.00,,,0.00,Wunderground v.1.15,2013-01-18 16:03:00,
2013-01-18 11:08:00,8.6,-4.7,30.29,SSW,207,2.0,10.0,54,0.00,,,0.00,Wunderground v.1.15,2013-01-18 16:08:00,
2013-01-18 11:13:00,8.7,-5.0,30.29,WNW,300,5.0,9.0,53,0.00,,,0.00,Wunderground v.1.15,2013-01-18 16:13:00,
2013-01-18 11:18:00,8.7,-4.2,30.29,WNW,300,4.0,12.0,55,0.00,,,0.00,Wunderground v.1.15,2013-01-18 16:18:00,
2013-01-18 11:23:00,9.4,-3.9,30.29,NW,306,3.0,6.0,54,0.00,,,0.00,Wunderground v.1.15,2013-01-18 16:23:00,
2013-01-18 11:28:00,9.2,-4.5,30.29,NNW,333,0.0,11.0,53,0.00,,,0.00,Wunderground v.1.15,2013-01-18 16:28:00,
2013-01-18 11:33:00,9.6,-4.1,30.28,NW,322,3.0,7.0,53,0.00,,,0.00,Wunderground v.1.15,2013-01-18 16:33:00,
2013-01-18 11:38:00,9.7,-4.8,30.28,NW,316,4.0,10.0,51,0.00,,,0.00,Wunderground v.1.15,2013-01-18 16:38:00,
2013-01-18 11:43:00,9.9,-4.2,30.29,WSW,246,3.0,8.0,52,0.00,,,0.00,Wunderground v.1.15,2013-01-18 16:43:00,
2013-01-18 11:48:00,10.0,-4.6,30.29,NW,304,3.0,9.0,51,0.00,,,0.00,Wunderground v.1.15,2013-01-18 16:48:00,
2013-01-18 11:53:00,10.5,-4.1,30.28,WNW,299,5.0,7.0,51,0.00,,,0.00,Wunderground v.1.15,2013-01-18 16:53:00,
2013-01-18 11:58:00,10.6,-4.0,30.28,WNW,298,1.0,8.0,51,0.00,,,0.00,Wunderground v.1.15,2013-01-18 16:58:00,
2013-01-18 12:03:00,10.3,-4.7,30.28,SW,231,6.0,14.0,50,0.00,,,0.00,Wunderground v.1.15,2013-01-18 17:03:00,
2013-01-18 12:08:00,9.8,-4.7,30.28,NW,321,10.0,15.0,51,0.00,,,0.00,Wunderground v.1.15,2013-01-18 17:08:00,
2013-01-18 12:14:00,10.4,-3.8,30.28,WNW,301,3.0,12.0,52,0.00,,,0.00,Wunderground v.1.15,2013-01-18 17:14:00,
2013-01-18 12:19:00,11.0,-3.6,30.28,WSW,240,6.0,12.0,51,0.00,,,0.00,Wunderground v.1.15,2013-01-18 17:19:00,
2013-01-18 12:24:00,11.2,-3.9,30.28,North,359,8.0,12.0,50,0.00,,,0.00,Wunderground v.1.15,2013-01-18 17:24:00,
2013-01-18 12:29:00,11.0,-4.0,30.28,NW,312,0.0,18.0,50,0.00,,,0.00,Wunderground v.1.15,2013-01-18 17:29:00,
2013-01-18 12:34:00,11.3,-3.8,30.28,NW,309,4.0,10.0,50,0.00,,,0.00,Wunderground v.1.15,2013-01-18 17:34:00,
2013-01-18 12:39:00,11.7,-3.8,30.28,WSW,247,2.0,6.0,49,0.00,,,0.00,Wunderground v.1.15,2013-01-18 17:39:00,
2013-01-18 12:44:00,11.8,-4.2,30.28,WNW,291,6.0,17.0,48,0.00,,,0.00,Wunderground v.1.15,2013-01-18 17:44:00,
2013-01-18 12:49:00,12.3,-2.8,30.28,NNW,328,4.0,7.0,50,0.00,,,0.00,Wunderground v.1.15,2013-01-18 17:49:00,
2013-01-18 12:54:00,12.5,-3.5,30.29,West,266,5.0,10.0,48,0.00,,,0.00,Wunderground v.1.15,2013-01-18 17:54:00,
2013-01-18 12:59:00,13.0,-3.5,30.29,WSW,238,0.0,5.0,47,0.00,,,0.00,Wunderground v.1.15,2013-01-18 17:59:00,
2013-01-18 13:04:00,13.0,-3.0,30.29,East,82,2.0,12.0,48,0.00,,,0.00,Wunderground v.1.15,2013-01-18 18:04:00,
2013-01-18 13:09:00,13.3,-3.2,30.29,WSW,243,11.0,14.0,47,0.00,,,0.00,Wunderground v.1.15,2013-01-18 18:09:00,
2013-01-18 13:14:00,13.2,-3.7,30.29,WNW,294,17.0,17.0,46,0.00,,,0.00,Wunderground v.1.15,2013-01-18 18:14:00,
2013-01-18 13:19:00,13.1,-3.4,30.30,NNW,338,5.0,7.0,47,0.00,,,0.00,Wunderground v.1.15,2013-01-18 18:19:00,
2013-01-18 13:24:00,13.0,-4.4,30.30,NW,319,7.0,14.0,45,0.00,,,0.00,Wunderground v.1.15,2013-01-18 18:24:00,
2013-01-18 13:29:00,13.4,-4.0,30.30,WNW,287,9.0,9.0,45,0.00,,,0.00,Wunderground v.1.15,2013-01-18 18:29:00,
2013-01-18 13:34:00,13.4,-4.0,30.30,NW,309,7.0,14.0,45,0.00,,,0.00,Wunderground v.1.15,2013-01-18 18:34:00,
2013-01-18 13:39:00,13.6,-3.8,30.30,NW,304,2.0,7.0,45,0.00,,,0.00,Wunderground v.1.15,2013-01-18 18:39:00,
2013-01-18 13:44:00,13.8,-3.7,30.30,NW,309,8.0,17.0,45,0.00,,,0.00,Wunderground v.1.15,2013-01-18 18:44:00,
2013-01-18 13:49:00,13.9,-3.6,30.30,WSW,250,4.0,11.0,45,0.00,,,0.00,Wunderground v.1.15,2013-01-18 18:49:00,
2013-01-18 13:54:00,14.4,-2.6,30.30,WSW,245,8.0,11.0,46,0.00,,,0.00,Wunderground v.1.15,2013-01-18 18:54:00,
2013-01-18 13:59:00,14.5,-2.6,30.30,WSW,239,3.0,5.0,46,0.00,,,0.00,Wunderground v.1.15,2013-01-18 18:59:00,
2013-01-18 14:04:00,14.5,-3.0,30.31,WNW,302,4.0,11.0,45,0.00,,,0.00,Wunderground v.1.15,2013-01-18 19:04:00,
2013-01-18 14:09:00,14.9,-1.7,30.30,NW,308,2.0,5.0,47,0.00,,,0.00,Wunderground v.1.15,2013-01-18 19:09:00,
2013-01-18 14:14:00,15.1,-1.5,30.30,NW,325,3.0,9.0,47,0.00,,,0.00,Wunderground v.1.15,2013-01-18 19:14:00,
2013-01-18 14:19:00,15.2,-1.9,30.31,NW,316,3.0,6.0,46,0.00,,,0.00,Wunderground v.1.15,2013-01-18 19:19:00,
2013-01-18 14:24:00,15.3,-1.8,30.31,SW,234,5.0,8.0,46,0.00,,,0.00,Wunderground v.1.15,2013-01-18 19:24:00,
2013-01-18 14:29:00,15.5,-2.1,30.31,East,93,3.0,4.0,45,0.00,,,0.00,Wunderground v.1.15,2013-01-18 19:29:00,
2013-01-18 14:35:00,15.5,-2.6,30.31,WSW,249,1.0,11.0,44,0.00,,,0.00,Wunderground v.1.15,2013-01-18 19:35:00,
2013-01-18 14:40:00,15.6,-2.5,30.31,NW,309,2.0,5.0,44,0.00,,,0.00,Wunderground v.1.15,2013-01-18 19:40:00,
2013-01-18 14:45:00,15.6,-2.0,30.31,West,269,2.0,9.0,45,0.00,,,0.00,Wunderground v.1.15,2013-01-18 19:45:00,
2013-01-18 14:50:00,15.9,-1.3,30.31,South,187,5.0,5.0,46,0.00,,,0.00,Wunderground v.1.15,2013-01-18 19:50:00,
2013-01-18 14:55:00,16.1,-1.5,30.31,SSW,200,3.0,5.0,45,0.00,,,0.00,Wunderground v.1.15,2013-01-18 19:55:00,
2013-01-18 15:00:00,16.2,-1.5,30.31,WNW,299,3.0,3.0,45,0.00,,,0.00,Wunderground v.1.15,2013-01-18 20:00:00,
2013-01-18 15:05:00,16.4,-1.7,30.31,North,354,2.0,6.0,44,0.00,,,0.00,Wunderground v.1.15,2013-01-18 20:05:00,
2013-01-18 15:10:00,16.4,-1.7,30.31,WNW,292,2.0,3.0,44,0.00,,,0.00,Wunderground v.1.15,2013-01-18 20:10:00,
2013-01-18 15:15:00,16.3,-1.8,30.31,South,174,1.0,7.0,44,0.00,,,0.00,Wunderground v.1.15,2013-01-18 20:15:00,
2013-01-18 15:20:00,16.3,-2.3,30.31,NW,316,1.0,4.0,43,0.00,,,0.00,Wunderground v.1.15,2013-01-18 20:20:00,
2013-01-18 15:25:00,16.2,-2.4,30.31,WSW,247,3.0,5.0,43,0.00,,,0.00,Wunderground v.1.15,2013-01-18 20:25:00,
2013-01-18 15:30:00,15.9,-3.2,30.31,SSW,202,2.0,4.0,42,0.00,,,0.00,Wunderground v.1.15,2013-01-18 20:30:00,
2013-01-18 15:35:00,16.0,-3.1,30.31,West,262,0.0,8.0,42,0.00,,,0.00,Wunderground v.1.15,2013-01-18 20:35:00,
2013-01-18 15:40:00,16.2,-2.9,30.31,SW,221,2.0,4.0,42,0.00,,,0.00,Wunderground v.1.15,2013-01-18 20:40:00,
2013-01-18 15:45:00,16.0,-2.6,30.31,NW,325,3.0,5.0,43,0.00,,,0.00,Wunderground v.1.15,2013-01-18 20:45:00,
2013-01-18 15:50:00,15.8,-3.3,30.31,NW,318,1.0,4.0,42,0.00,,,0.00,Wunderground v.1.15,2013-01-18 20:50:00,
2013-01-18 15:55:00,15.6,-3.5,30.31,ENE,70,1.0,6.0,42,0.00,,,0.00,Wunderground v.1.15,2013-01-18 20:55:00,
2013-01-18 16:00:00,15.7,-3.4,30.31,NNW,344,0.0,2.0,42,0.00,,,0.00,Wunderground v.1.15,2013-01-18 21:00:00,
2013-01-18 16:05:00,15.6,-3.5,30.32,WSW,247,2.0,5.0,42,0.00,,,0.00,Wunderground v.1.15,2013-01-18 21:05:00,
2013-01-18 16:10:00,15.4,-3.6,30.32,West,266,1.0,5.0,42,0.00,,,0.00,Wunderground v.1.15,2013-01-18 21:10:00,
2013-01-18 16:15:00,15.1,-3.9,30.32,SW,233,3.0,6.0,42,0.00,,,0.00,Wunderground v.1.15,2013-01-18 21:15:00,
2013-01-18 16:20:00,14.9,-3.1,30.32,NW,306,2.0,2.0,44,0.00,,,0.00,Wunderground v.1.15,2013-01-18 21:20:00,
2013-01-18 16:25:00,14.5,-3.5,30.32,NNW,337,1.0,5.0,44,0.00,,,0.00,Wunderground v.1.15,2013-01-18 21:25:00,
2013-01-18 16:30:00,14.2,-3.3,30.32,West,280,2.0,2.0,45,0.00,,,0.00,Wunderground v.1.15,2013-01-18 21:30:00,
2013-01-18 16:35:00,13.6,-3.4,30.32,WNW,283,1.0,5.0,46,0.00,,,0.00,Wunderground v.1.15,2013-01-18 21:35:00,
2013-01-18 16:40:00,13.1,-3.4,30.32,WNW,299,1.0,2.0,47,0.00,,,0.00,Wunderground v.1.15,2013-01-18 21:40:00,
2013-01-18 16:45:00,12.7,-2.9,30.33,WNW,286,0.0,3.0,49,0.00,,,0.00,Wunderground v.1.15,2013-01-18 21:45:00,
2013-01-18 16:50:00,12.3,-2.8,30.33,NNW,333,0.0,5.0,50,0.00,,,0.00,Wunderground v.1.15,2013-01-18 21:50:00,
2013-01-18 16:55:00,12.0,-1.9,30.34,SSW,194,1.0,5.0,53,0.00,,,0.00,Wunderground v.1.15,2013-01-18 21:55:00,
2013-01-18 17:00:00,11.8,-1.7,30.33,SE,142,1.0,1.0,54,0.00,,,0.00,Wunderground v.1.15,2013-01-18 22:00:00,
2013-01-18 17:05:00,11.4,-1.7,30.33,SW,217,0.0,2.0,55,0.00,,,0.00,Wunderground v.1.15,2013-01-18 22:05:00,
2013-01-18 17:10:00,11.3,-1.4,30.34,SW,220,3.0,3.0,56,0.00,,,0.00,Wunderground v.1.15,2013-01-18 22:10:00,
2013-01-18 17:15:00,11.1,-1.2,30.34,West,267,0.0,5.0,57,0.00,,,0.00,Wunderground v.1.15,2013-01-18 22:15:00,
2013-01-18 17:20:00,10.9,-1.0,30.34,SSW,198,0.0,1.0,58,0.00,,,0.00,Wunderground v.1.15,2013-01-18 22:20:00,
2013-01-18 17:25:00,10.4,-0.8,30.34,SE,127,0.0,1.0,60,0.00,,,0.00,Wunderground v.1.15,2013-01-18 22:25:00,
2013-01-18 17:30:00,9.7,-0.7,30.34,ESE,116,0.0,0.0,62,0.00,,,0.00,Wunderground v.1.15,2013-01-18 22:30:00,
2013-01-18 17:35:00,9.6,-0.5,30.34,West,264,0.0,2.0,63,0.00,,,0.00,Wunderground v.1.15,2013-01-18 22:35:00,
2013-01-18 17:40:00,9.4,-0.7,30.34,SSE,151,0.0,0.0,63,0.00,,,0.00,Wunderground v.1.15,2013-01-18 22:40:00,
2013-01-18 17:45:00,8.8,-0.3,30.34,SSE,149,0.0,0.0,66,0.00,,,0.00,Wunderground v.1.15,2013-01-18 22:45:00,
2013-01-18 17:50:00,8.1,-0.3,30.34,SSE,150,0.0,0.0,68,0.00,,,0.00,Wunderground v.1.15,2013-01-18 22:50:00,
2013-01-18 17:55:00,7.4,-0.6,30.34,SE,132,1.0,1.0,69,0.00,,,0.00,Wunderground v.1.15,2013-01-18 22:55:00,
2013-01-18 18:00:00,6.8,-1.2,30.34,South,188,0.0,0.0,69,0.00,,,0.00,Wunderground v.1.15,2013-01-18 23:00:00,
2013-01-18 18:05:00,6.7,-0.4,30.34,SE,127,0.0,1.0,72,0.00,,,0.00,Wunderground v.1.15,2013-01-18 23:05:00,
2013-01-18 18:10:00,6.3,-0.8,30.34,SE,127,0.0,0.0,72,0.00,,,0.00,Wunderground v.1.15,2013-01-18 23:10:00,
2013-01-18 18:15:00,6.1,-0.7,30.34,East,89,0.0,1.0,73,0.00,,,0.00,Wunderground v.1.15,2013-01-18 23:15:00,
2013-01-18 18:20:00,5.8,-1.3,30.34,East,96,1.0,1.0,72,0.00,,,0.00,Wunderground v.1.15,2013-01-18 23:20:00,
2013-01-18 18:25:00,5.5,-1.0,30.34,East,96,0.0,1.0,74,0.00,,,0.00,Wunderground v.1.15,2013-01-18 23:25:00,
2013-01-18 18:30:00,5.0,-1.5,30.34,East,96,1.0,1.0,74,0.00,,,0.00,Wunderground v.1.15,2013-01-18 23:30:00,
2013-01-18 18:35:00,4.6,-1.6,30.34,East,96,0.0,1.0,75,0.00,,,0.00,Wunderground v.1.15,2013-01-18 23:35:00,
2013-01-18 18:40:00,4.3,-1.6,30.34,East,96,0.0,1.0,76,0.00,,,0.00,Wunderground v.1.15,2013-01-18 23:40:00,
2013-01-18 18:45:00,4.1,-1.5,30.34,East,96,0.0,1.0,77,0.00,,,0.00,Wunderground v.1.15,2013-01-18 23:45:00,
2013-01-18 18:50:00,3.9,-1.7,30.35,East,96,0.0,0.0,77,0.00,,,0.00,Wunderground v.1.15,2013-01-18 23:50:00,
2013-01-18 18:55:00,4.0,-1.3,30.34,East,80,2.0,2.0,78,0.00,,,0.00,Wunderground v.1.15,2013-01-18 23:55:00,
2013-01-18 19:00:00,3.6,-2.0,30.34,ESE,102,1.0,1.0,77,0.00,,,0.00,Wunderground v.1.15,2013-01-19 00:00:00,
2013-01-18 19:05:00,3.3,-2.0,30.34,East,83,0.0,2.0,78,0.00,,,0.00,Wunderground v.1.15,2013-01-19 00:05:00,
2013-01-18 19:10:00,3.3,-1.7,30.34,East,100,0.0,2.0,79,0.00,,,0.00,Wunderground v.1.15,2013-01-19 00:10:00,
2013-01-18 19:15:00,3.3,-1.7,30.35,East,90,1.0,2.0,79,0.00,,,0.00,Wunderground v.1.15,2013-01-19 00:15:00,
2013-01-18 19:21:00,3.2,-1.6,30.35,East,91,0.0,1.0,80,0.00,,,0.00,Wunderground v.1.15,2013-01-19 00:21:00,
2013-01-18 19:26:00,3.0,-1.8,30.34,ENE,67,0.0,3.0,80,0.00,,,0.00,Wunderground v.1.15,2013-01-19 00:26:00,
2013-01-18 19:31:00,2.9,-1.9,30.34,East,96,1.0,2.0,80,0.00,,,0.00,Wunderground v.1.15,2013-01-19 00:31:00,
2013-01-18 19:36:00,2.7,-2.1,30.34,ESE,109,2.0,3.0,80,0.00,,,0.00,Wunderground v.1.15,2013-01-19 00:36:00,
2013-01-18 19:41:00,2.9,-1.6,30.34,East,88,0.0,1.0,81,0.00,,,0.00,Wunderground v.1.15,2013-01-19 00:41:00,
2013-01-18 19:46:00,3.0,-1.3,30.34,ENE,78,0.0,2.0,82,0.00,,,0.00,Wunderground v.1.15,2013-01-19 00:46:00,
2013-01-18 19:51:00,2.8,-1.7,30.35,East,87,0.0,2.0,81,0.00,,,0.00,Wunderground v.1.15,2013-01-19 00:51:00,
2013-01-18 19:56:00,2.7,-1.8,30.34,East,89,1.0,2.0,81,0.00,,,0.00,Wunderground v.1.15,2013-01-19 00:56:00,
2013-01-18 20:01:00,2.5,-1.7,30.34,East,88,0.0,1.0,82,0.00,,,0.00,Wunderground v.1.15,2013-01-19 01:01:00,
2013-01-18 20:06:00,2.4,-1.8,30.34,East,90,1.0,2.0,82,0.00,,,0.00,Wunderground v.1.15,2013-01-19 01:06:00,
2013-01-18 20:11:00,2.4,-1.8,30.34,East,100,2.0,2.0,82,0.00,,,0.00,Wunderground v.1.15,2013-01-19 01:11:00,
2013-01-18 20:16:00,2.4,-1.6,30.34,East,90,3.0,3.0,83,0.00,,,0.00,Wunderground v.1.15,2013-01-19 01:16:00,
2013-01-18 20:21:00,2.3,-1.7,30.34,East,84,0.0,1.0,83,0.00,,,0.00,Wunderground v.1.15,2013-01-19 01:21:00,
2013-01-18 20:26:00,2.2,-1.8,30.34,East,84,1.0,3.0,83,0.00,,,0.00,Wunderground v.1.15,2013-01-19 01:26:00,
2013-01-18 20:31:00,2.1,-1.9,30.34,East,81,0.0,2.0,83,0.00,,,0.00,Wunderground v.1.15,2013-01-19 01:31:00,
2013-01-18 20:36:00,1.8,-1.9,30.34,East,88,1.0,2.0,84,0.00,,,0.00,Wunderground v.1.15,2013-01-19 01:36:00,
2013-01-18 20:42:00,2.0,-1.7,30.34,East,82,0.0,2.0,84,0.00,,,0.00,Wunderground v.1.15,2013-01-19 01:42:00,
2013-01-18 20:47:00,2.0,-1.7,30.34,East,84,0.0,3.0,84,0.00,,,0.00,Wunderground v.1.15,2013-01-19 01:47:00,
2013-01-18 20:52:00,2.0,-1.5,30.34,ESE,103,1.0,2.0,85,0.00,,,0.00,Wunderground v.1.15,2013-01-19 01:52:00,
2013-01-18 20:57:00,2.2,-1.5,30.34,East,92,1.0,2.0,84,0.00,,,0.00,Wunderground v.1.15,2013-01-19 01:57:00,
2013-01-18 21:02:00,2.4,-1.1,30.34,ENE,69,1.0,2.0,85,0.00,,,0.00,Wunderground v.1.15,2013-01-19 02:02:00,
2013-01-18 21:07:00,2.5,-1.0,30.34,ENE,69,0.0,2.0,85,0.00,,,0.00,Wunderground v.1.15,2013-01-19 02:07:00,
2013-01-18 21:12:00,2.7,-0.8,30.34,ENE,69,1.0,1.0,85,0.00,,,0.00,Wunderground v.1.15,2013-01-19 02:12:00,
2013-01-18 21:17:00,3.0,-0.5,30.33,ESE,111,0.0,1.0,85,0.00,,,0.00,Wunderground v.1.15,2013-01-19 02:17:00,
2013-01-18 21:22:00,3.2,-0.3,30.33,East,98,2.0,2.0,85,0.00,,,0.00,Wunderground v.1.15,2013-01-19 02:22:00,
2013-01-18 21:27:00,3.3,-0.4,30.33,East,84,0.0,2.0,84,0.00,,,0.00,Wunderground v.1.15,2013-01-19 02:27:00,
2013-01-18 21:32:00,3.5,0.0,30.33,East,90,0.0,2.0,85,0.00,,,0.00,Wunderground v.1.15,2013-01-19 02:32:00,
2013-01-18 21:37:00,3.6,0.1,30.33,East,85,0.0,2.0,85,0.00,,,0.00,Wunderground v.1.15,2013-01-19 02:37:00,
2013-01-18 21:42:00,3.6,-0.2,30.32,East,96,1.0,2.0,84,0.00,,,0.00,Wunderground v.1.15,2013-01-19 02:42:00,
2013-01-18 21:47:00,3.8,0.3,30.32,ESE,102,0.0,2.0,85,0.00,,,0.00,Wunderground v.1.15,2013-01-19 02:47:00,
2013-01-18 21:52:00,3.8,0.3,30.32,ENE,72,0.0,2.0,85,0.00,,,0.00,Wunderground v.1.15,2013-01-19 02:52:00,
2013-01-18 21:57:00,3.9,0.6,30.32,NNW,332,0.0,2.0,86,0.00,,,0.00,Wunderground v.1.15,2013-01-19 02:57:00,
2013-01-18 22:02:00,3.5,-0.2,30.31,East,88,1.0,1.0,84,0.00,,,0.00,Wunderground v.1.15,2013-01-19 03:02:00,
2013-01-18 22:07:00,3.1,-0.4,30.31,East,88,0.0,1.0,85,0.00,,,0.00,Wunderground v.1.15,2013-01-19 03:07:00,
2013-01-18 22:12:00,2.9,-0.6,30.31,East,88,1.0,1.0,85,0.00,,,0.00,Wunderground v.1.15,2013-01-19 03:12:00,
2013-01-18 22:17:00,2.9,-0.3,30.30,East,88,0.0,1.0,86,0.00,,,0.00,Wunderground v.1.15,2013-01-19 03:17:00,
2013-01-18 22:22:00,3.0,0.0,30.31,NNE,19,1.0,1.0,87,0.00,,,0.00,Wunderground v.1.15,2013-01-19 03:22:00,
2013-01-18 22:27:00,3.7,0.7,30.31,ESE,110,0.0,2.0,87,0.00,,,0.00,Wunderground v.1.15,2013-01-19 03:27:00,
2013-01-18 22:32:00,3.7,0.4,30.30,ESE,105,1.0,2.0,86,0.00,,,0.00,Wunderground v.1.15,2013-01-19 03:32:00,
2013-01-18 22:37:00,3.9,0.6,30.30,WNW,294,0.0,2.0,86,0.00,,,0.00,Wunderground v.1.15,2013-01-19 03:37:00,
2013-01-18 22:43:00,4.0,0.7,30.30,ESE,110,0.0,2.0,86,0.00,,,0.00,Wunderground v.1.15,2013-01-19 03:43:00,
2013-01-18 22:48:00,4.2,0.9,30.29,ESE,108,0.0,2.0,86,0.00,,,0.00,Wunderground v.1.15,2013-01-19 03:48:00,
2013-01-18 22:53:00,4.5,1.2,30.28,ESE,108,0.0,1.0,86,0.00,,,0.00,Wunderground v.1.15,2013-01-19 03:53:00,
2013-01-18 22:58:00,4.8,1.5,30.28,East,93,2.0,2.0,86,0.00,,,0.00,Wunderground v.1.15,2013-01-19 03:58:00,
2013-01-18 23:03:00,5.3,2.0,30.28,ENE,63,0.0,1.0,86,0.00,,,0.00,Wunderground v.1.15,2013-01-19 04:03:00,
2013-01-18 23:08:00,5.6,2.3,30.27,SE,136,0.0,2.0,86,0.00,,,0.00,Wunderground v.1.15,2013-01-19 04:08:00,
2013-01-18 23:13:00,6.2,2.9,30.27,SE,126,0.0,1.0,86,0.00,,,0.00,Wunderground v.1.15,2013-01-19 04:13:00,
2013-01-18 23:18:00,6.7,3.1,30.27,East,88,0.0,2.0,85,0.00,,,0.00,Wunderground v.1.15,2013-01-19 04:18:00,
2013-01-18 23:23:00,7.2,3.9,30.27,South,170,1.0,2.0,86,0.00,,,0.00,Wunderground v.1.15,2013-01-19 04:23:00,
2013-01-18 23:28:00,7.5,3.9,30.27,SSE,150,0.0,2.0,85,0.00,,,0.00,Wunderground v.1.15,2013-01-19 04:28:00,
2013-01-18 23:33:00,7.9,4.3,30.27,East,84,1.0,2.0,85,0.00,,,0.00,Wunderground v.1.15,2013-01-19 04:33:00,
2013-01-18 23:38:00,8.3,4.5,30.26,East,84,1.0,2.0,84,0.00,,,0.00,Wunderground v.1.15,2013-01-19 04:38:00,
2013-01-18 23:43:00,8.6,5.0,30.26,East,84,1.0,1.0,85,0.00,,,0.00,Wunderground v.1.15,2013-01-19 04:43:00,
2013-01-18 23:49:00,9.1,5.5,30.26,SE,135,0.0,1.0,85,0.00,,,0.00,Wunderground v.1.15,2013-01-19 04:49:00,
2013-01-18 23:54:00,9.8,5.9,30.26,ESE,107,0.0,2.0,84,0.00,,,0.00,Wunderground v.1.15,2013-01-19 04:54:00,
2013-01-18 23:59:00,9.8,5.7,30.26,ESE,108,0.0,0.0,83,0.00,,,0.00,Wunderground v.1.15,2013-01-19 04:59:00,